logo

United by the hobby
of model aircraft flying

Promoting safe
radio model flying

Sharing the experience
of RC flying

Dedicated to the sport of model aviation

Meeting
Venue

Third Monday Each Month
Crown Point Civic Center
101 S East Street
Crown Point, IN 46307

Read More

email:
[javascript protected email address]

View our events calendar

2022

Weather Conditions

Elev 730 ft    41.19°N  87.16°W

39.9 °F
°
m/h
Wind Variable Wind from NNE

Current Conditions

Pressure 30.11 in
Visibility 4 miles
Clouds Overcast
Dew Point 39.9 °F
Humidity 100 %
Rainfall T1.3 in
 
METAR KVPZ 070756Z AUTO 00000KT 4SM BR OVC009 04/04 A3011 RMK AO2 SLP200 T00440044

Forecast

INFORMATION PROVIDED BY THE INDIANA STATE FORECAST - NATIONAL WEATHER SERVICE
Sunrise & Sunset
December 7, 2022
7::0 AM

::20 PM
High 40 | Low 27°F
December 8, 2022
7::0 AM

::20 PM
High | Low °F
 

our gallery

View All